Terminal Aerodrome Forecast
Issued by NWS

Home | Current Version | Previous Version | Text Only | Print | Product List | Glossary On
Versions: 1 2 3 4 5 6 7 8 9 10 11 12 13 14 15 16 17
000
FTUS43 KDLH 270500
TAFHIB
TAF
KHIB 270520Z 2706/2806 VRB05KT P6SM VCSH FEW050 BKN080
     FM270900 30008KT P6SM -RA BKN025 OVC050
      TEMPO 2711/2715 5SM -RA BR OVC015
     FM271500 35014G21KT P6SM VCSH BKN022 OVC060
     FM271900 35012G18KT P6SM VCSH SCT025 BKN050
     FM280000 36010KT P6SM SCT050=

USA.gov is the U.S. government's official web portal to all federal, state and local government web resources and services.